createdAt,value
2023-01-09T00:00:16.817Z,33.00
2023-01-09T00:02:46.055Z,31.03
2023-01-09T00:05:16.492Z,31.30
2023-01-09T00:07:45.885Z,32.30
2023-01-09T00:10:15.708Z,32.83
2023-01-09T00:12:44.557Z,34.27
2023-01-09T00:15:15.165Z,35.20
2023-01-09T00:17:44.015Z,34.50
2023-01-09T00:20:13.222Z,32.93
2023-01-09T00:22:42.076Z,34.20
2023-01-09T00:25:11.411Z,34.17
2023-01-09T00:27:40.295Z,31.87
2023-01-09T00:30:10.586Z,34.30
2023-01-09T00:32:41.732Z,32.40
2023-01-09T00:35:16.667Z,32.90
2023-01-09T00:37:45.675Z,31.13
2023-01-09T00:40:17.019Z,32.17
2023-01-09T00:42:49.104Z,30.80
2023-01-09T00:45:22.633Z,33.97
2023-01-09T00:47:54.177Z,32.20
2023-01-09T00:50:25.337Z,34.57
2023-01-09T00:52:56.419Z,33.33
2023-01-09T00:55:25.602Z,39.87
2023-01-09T00:57:54.442Z,38.63
2023-01-09T01:00:23.324Z,35.13
2023-01-09T01:02:53.506Z,38.27
2023-01-09T01:05:40.079Z,35.57
2023-01-09T01:08:13.220Z,35.80
2023-01-09T01:10:42.288Z,36.37
2023-01-09T01:13:11.991Z,36.43
2023-01-09T01:15:41.583Z,36.40
2023-01-09T01:18:12.277Z,35.33
2023-01-09T01:20:42.383Z,37.43
2023-01-09T01:23:11.337Z,36.90
2023-01-09T01:25:40.320Z,40.10
2023-01-09T01:28:09.647Z,38.57
2023-01-09T01:30:40.195Z,36.90
2023-01-09T01:33:11.461Z,35.17
2023-01-09T01:35:40.589Z,35.50
2023-01-09T01:38:09.393Z,37.30
2023-01-09T01:40:38.539Z,37.47
2023-01-09T01:43:07.264Z,37.97
2023-01-09T01:45:36.302Z,37.60
2023-01-09T01:48:08.630Z,36.77
2023-01-09T01:50:42.278Z,36.90
2023-01-09T01:53:16.775Z,39.10
2023-01-09T01:55:55.399Z,41.43
2023-01-09T01:58:24.235Z,40.03
2023-01-09T02:00:53.259Z,38.77
2023-01-09T02:03:26.879Z,38.57
2023-01-09T02:05:57.326Z,37.90
2023-01-09T02:08:26.165Z,35.17
2023-01-09T02:10:56.289Z,37.73
2023-01-09T02:13:26.513Z,38.63
2023-01-09T02:16:11.942Z,36.53
2023-01-09T02:18:48.374Z,36.30
2023-01-09T02:21:27.652Z,34.73
2023-01-09T02:24:18.015Z,35.33
2023-01-09T02:27:14.562Z,35.20
2023-01-09T02:30:21.454Z,36.17
2023-01-09T02:33:01.290Z,37.27
2023-01-09T02:35:44.953Z,36.97
2023-01-09T02:38:24.280Z,36.90
2023-01-09T02:41:03.559Z,38.63
2023-01-09T02:43:33.288Z,39.97
2023-01-09T02:46:02.262Z,38.43
2023-01-09T02:48:33.252Z,39.70
2023-01-09T02:51:11.116Z,39.63
2023-01-09T02:54:01.083Z,41.20
2023-01-09T02:56:59.031Z,39.50
2023-01-09T02:59:34.554Z,37.83
2023-01-09T03:02:21.904Z,36.80
2023-01-09T03:05:00.795Z,38.67
2023-01-09T03:07:36.148Z,39.33
2023-01-09T03:10:14.704Z,38.57
2023-01-09T03:12:45.027Z,36.87
2023-01-09T03:15:16.100Z,37.07
2023-01-09T03:17:48.782Z,41.93
2023-01-09T03:20:23.637Z,39.93
2023-01-09T03:22:57.679Z,40.67
2023-01-09T03:25:28.295Z,41.77
2023-01-09T03:28:00.160Z,40.10
2023-01-09T03:30:31.279Z,39.50
2023-01-09T03:33:00.004Z,40.57
2023-01-09T03:35:30.624Z,40.97
2023-01-09T03:37:59.646Z,40.23
2023-01-09T03:40:28.401Z,39.07
2023-01-09T03:42:57.089Z,38.07
2023-01-09T03:45:25.818Z,38.00
2023-01-09T03:47:54.622Z,38.83
2023-01-09T03:50:23.345Z,38.23
2023-01-09T03:52:53.462Z,37.80
2023-01-09T03:55:22.216Z,37.20
2023-01-09T03:57:52.918Z,34.37
2023-01-09T04:00:22.359Z,37.80
2023-01-09T04:02:51.099Z,35.43
2023-01-09T04:05:19.898Z,42.40
2023-01-09T04:07:48.662Z,40.73
2023-01-09T04:10:19.666Z,45.70
2023-01-09T04:12:48.329Z,44.30
2023-01-09T04:15:17.148Z,41.17
2023-01-09T04:17:45.868Z,38.40
2023-01-09T04:20:14.725Z,37.37
2023-01-09T04:22:43.448Z,36.00
2023-01-09T04:25:12.792Z,35.70
2023-01-09T04:27:43.085Z,34.70
2023-01-09T04:30:13.003Z,36.57
2023-01-09T04:32:41.729Z,35.77
2023-01-09T04:35:11.574Z,36.57
2023-01-09T04:37:40.777Z,35.53
2023-01-09T04:40:12.512Z,31.83
2023-01-09T04:42:43.297Z,33.33
2023-01-09T04:45:15.572Z,33.37
2023-01-09T04:47:44.554Z,34.83
2023-01-09T04:50:14.281Z,33.53
2023-01-09T04:52:42.945Z,33.70
2023-01-09T04:55:11.988Z,31.83
2023-01-09T04:57:40.720Z,32.87
2023-01-09T05:00:12.567Z,31.03
2023-01-09T05:02:42.117Z,28.53
2023-01-09T05:05:12.100Z,31.10
2023-01-09T05:07:41.369Z,31.13
2023-01-09T05:10:11.702Z,30.10
2023-01-09T05:12:40.515Z,31.60
2023-01-09T05:15:12.111Z,28.70
2023-01-09T05:17:40.825Z,30.90
2023-01-09T05:20:10.326Z,31.20
2023-01-09T05:22:39.106Z,28.53
2023-01-09T05:25:08.672Z,28.80
2023-01-09T05:27:37.396Z,29.70
2023-01-09T05:30:06.789Z,30.43
2023-01-09T05:32:36.973Z,30.23
2023-01-09T05:35:06.190Z,27.80
2023-01-09T05:37:34.920Z,29.00
2023-01-09T05:40:03.792Z,27.90
2023-01-09T05:42:32.569Z,30.17
2023-01-09T05:45:01.391Z,27.83
2023-01-09T05:47:30.276Z,27.77
2023-01-09T05:50:00.530Z,31.20
2023-01-09T05:52:29.401Z,29.50
2023-01-09T05:54:58.102Z,28.23
2023-01-09T05:57:27.524Z,28.20
2023-01-09T05:59:56.272Z,28.43
2023-01-09T06:02:25.167Z,26.90
2023-01-09T06:04:53.941Z,28.63
2023-01-09T06:07:24.196Z,26.53
2023-01-09T06:09:52.956Z,28.20
2023-01-09T06:12:21.732Z,28.73
2023-01-09T06:14:50.535Z,26.30
2023-01-09T06:17:19.369Z,26.70
2023-01-09T06:19:48.114Z,24.90
2023-01-09T06:22:16.916Z,25.10
2023-01-09T06:24:47.211Z,26.17
2023-01-09T06:27:15.931Z,25.03
2023-01-09T06:29:44.726Z,27.77
2023-01-09T06:32:13.477Z,24.23
2023-01-09T06:34:42.224Z,26.23
2023-01-09T06:37:10.987Z,24.93
2023-01-09T06:39:39.789Z,29.07
2023-01-09T06:42:10.011Z,28.30
2023-01-09T06:44:38.844Z,29.27
2023-01-09T06:47:07.715Z,31.03
2023-01-09T06:49:36.636Z,28.40
2023-01-09T06:52:07.899Z,27.73
2023-01-09T06:54:37.207Z,26.37
2023-01-09T06:57:06.025Z,26.70
2023-01-09T06:59:36.231Z,27.30
2023-01-09T07:02:05.129Z,26.30
2023-01-09T07:04:33.982Z,29.60
2023-01-09T07:07:02.780Z,27.80
2023-01-09T07:09:31.545Z,26.43
2023-01-09T07:12:06.694Z,24.70
2023-01-09T07:14:37.006Z,25.17
2023-01-09T07:17:05.773Z,24.70
2023-01-09T07:19:34.563Z,25.37
2023-01-09T07:22:03.222Z,26.33
2023-01-09T07:24:32.053Z,26.10
2023-01-09T07:27:00.733Z,25.03
2023-01-09T07:29:29.494Z,28.03
2023-01-09T07:31:59.773Z,26.10
2023-01-09T07:34:28.501Z,26.30
2023-01-09T07:36:57.302Z,26.70
2023-01-09T07:39:26.059Z,27.23
2023-01-09T07:41:54.854Z,27.00
2023-01-09T07:44:23.595Z,27.23
2023-01-09T07:46:52.351Z,26.20
2023-01-09T07:49:22.682Z,26.53
2023-01-09T07:51:52.143Z,27.53
2023-01-09T07:54:21.611Z,29.00
2023-01-09T07:56:52.586Z,28.20
2023-01-09T07:59:21.368Z,28.40
2023-01-09T08:01:50.488Z,27.00
2023-01-09T08:04:19.866Z,27.40
2023-01-09T08:06:51.042Z,26.20
2023-01-09T08:09:20.232Z,26.50
2023-01-09T08:11:51.600Z,27.50
2023-01-09T08:14:20.938Z,28.80
2023-01-09T08:16:50.007Z,26.50
2023-01-09T08:19:19.736Z,27.80
2023-01-09T08:21:51.690Z,28.43
2023-01-09T08:24:21.009Z,27.77
2023-01-09T08:26:50.054Z,27.27
2023-01-09T08:29:19.236Z,25.67
2023-01-09T08:31:49.887Z,28.03
2023-01-09T08:34:18.847Z,27.90
2023-01-09T08:36:47.534Z,26.13
2023-01-09T08:39:17.708Z,27.20
2023-01-09T08:42:03.995Z,27.17
2023-01-09T08:44:50.350Z,26.37
2023-01-09T08:47:21.861Z,28.50
2023-01-09T08:49:53.294Z,26.47
2023-01-09T08:52:22.149Z,25.70
2023-01-09T08:54:52.748Z,26.43
2023-01-09T08:57:21.665Z,26.50
2023-01-09T08:59:51.497Z,27.27
2023-01-09T09:02:20.530Z,27.00
2023-01-09T09:04:53.377Z,27.67
2023-01-09T09:07:26.845Z,25.87
2023-01-09T09:09:57.786Z,27.00
2023-01-09T09:12:27.721Z,26.97
2023-01-09T09:15:16.931Z,26.40
2023-01-09T09:17:46.612Z,26.00
2023-01-09T09:20:15.747Z,27.30
2023-01-09T09:22:44.540Z,28.50
2023-01-09T09:25:14.869Z,30.00
2023-01-09T09:27:43.761Z,27.30
2023-01-09T09:30:17.647Z,26.17
2023-01-09T09:32:46.849Z,26.83
2023-01-09T09:35:17.969Z,27.90
2023-01-09T09:37:55.781Z,27.33
2023-01-09T09:40:38.781Z,27.97
2023-01-09T09:43:43.479Z,27.60
2023-01-09T09:46:20.518Z,25.57
2023-01-09T09:48:54.145Z,26.20
2023-01-09T09:51:53.761Z,26.07
2023-01-09T09:54:28.910Z,24.13
2023-01-09T09:57:02.101Z,26.63
2023-01-09T09:59:34.940Z,25.03
2023-01-09T10:02:14.135Z,25.17
2023-01-09T10:04:50.499Z,25.00
2023-01-09T10:07:24.360Z,24.67
2023-01-09T10:09:55.647Z,26.67
2023-01-09T10:12:30.361Z,23.83
2023-01-09T10:15:00.503Z,26.57
2023-01-09T10:18:00.825Z,25.03
2023-01-09T10:20:49.686Z,24.43
2023-01-09T10:23:51.999Z,24.53
2023-01-09T10:26:26.863Z,24.00
2023-01-09T10:29:14.308Z,24.77
2023-01-09T10:31:53.037Z,24.43
2023-01-09T10:34:39.562Z,24.00
2023-01-09T10:37:14.411Z,22.83
2023-01-09T10:39:48.680Z,24.20
2023-01-09T10:42:23.679Z,22.50
2023-01-09T10:44:58.913Z,24.37
2023-01-09T10:47:32.164Z,23.97
2023-01-09T10:50:01.337Z,21.43
2023-01-09T10:52:37.240Z,22.30
2023-01-09T10:55:15.468Z,20.43
2023-01-09T10:57:46.095Z,23.80
2023-01-09T11:00:23.538Z,20.60
2023-01-09T11:02:53.387Z,18.77
2023-01-09T11:05:24.566Z,19.97
2023-01-09T11:07:58.449Z,20.40
2023-01-09T11:10:48.349Z,20.17
2023-01-09T11:13:21.938Z,20.50
2023-01-09T11:16:09.617Z,19.97
2023-01-09T11:18:42.074Z,19.77
2023-01-09T11:21:16.345Z,19.63
2023-01-09T11:23:45.433Z,20.17
2023-01-09T11:26:25.150Z,19.40
2023-01-09T11:29:13.977Z,18.30
2023-01-09T11:31:51.723Z,19.00
2023-01-09T11:34:22.960Z,20.97
2023-01-09T11:36:54.251Z,19.83
2023-01-09T11:39:26.739Z,20.73
2023-01-09T11:41:57.222Z,19.37
2023-01-09T11:44:27.026Z,20.90
2023-01-09T11:46:57.399Z,21.70
2023-01-09T11:49:28.405Z,21.93
2023-01-09T11:52:16.501Z,20.87
2023-01-09T11:54:50.623Z,18.83
2023-01-09T11:57:19.726Z,19.30
2023-01-09T11:59:48.506Z,19.70
2023-01-09T12:02:51.457Z,18.93
2023-01-09T12:05:33.214Z,20.30
2023-01-09T12:08:22.563Z,20.77
2023-01-09T12:11:20.042Z,17.50
2023-01-09T12:14:14.459Z,16.93
2023-01-09T12:16:51.238Z,15.70
2023-01-09T12:19:43.789Z,15.53
2023-01-09T12:22:24.086Z,15.90
2023-01-09T12:25:19.352Z,13.60
2023-01-09T12:28:02.265Z,12.60
2023-01-09T12:30:46.450Z,13.20
2023-01-09T12:33:32.153Z,12.07
2023-01-09T12:36:14.839Z,11.27
2023-01-09T12:38:50.060Z,12.43
2023-01-09T12:41:43.025Z,10.60
2023-01-09T12:44:38.017Z,10.63
2023-01-09T12:47:46.205Z,11.30
2023-01-09T12:50:47.205Z,9.27
2023-01-09T12:53:23.613Z,9.80
2023-01-09T12:55:58.723Z,9.00
2023-01-09T12:58:37.747Z,9.63
2023-01-09T13:01:10.214Z,9.30
2023-01-09T13:03:43.534Z,9.37
2023-01-09T13:06:18.047Z,8.73
2023-01-09T13:08:53.320Z,9.27
2023-01-09T13:11:28.072Z,9.47
2023-01-09T13:14:00.185Z,9.40
2023-01-09T13:16:34.868Z,9.30
2023-01-09T13:19:13.010Z,9.30
2023-01-09T13:21:42.798Z,9.10
2023-01-09T13:24:19.507Z,8.50
2023-01-09T13:26:52.577Z,13.40
2023-01-09T13:29:25.044Z,9.63
2023-01-09T13:32:21.165Z,9.07
2023-01-09T13:34:54.110Z,7.30
2023-01-09T13:37:26.443Z,8.07
2023-01-09T13:40:01.728Z,8.37
2023-01-09T13:42:50.827Z,8.50
2023-01-09T13:45:25.896Z,7.40
2023-01-09T13:48:19.439Z,7.80
2023-01-09T13:50:51.864Z,8.30
2023-01-09T13:53:48.878Z,8.30
2023-01-09T13:56:20.176Z,7.30
2023-01-09T13:59:09.545Z,7.50
2023-01-09T14:01:44.129Z,8.00
2023-01-09T14:04:39.812Z,7.50
2023-01-09T14:07:24.292Z,8.00
2023-01-09T14:09:58.678Z,8.60
2023-01-09T14:12:30.884Z,8.77
2023-01-09T14:15:03.790Z,8.57
2023-01-09T14:17:36.014Z,8.53
2023-01-09T14:20:08.324Z,8.10
2023-01-09T14:22:50.377Z,7.60
2023-01-09T14:25:28.318Z,8.33
2023-01-09T14:28:21.467Z,7.10
2023-01-09T14:31:11.170Z,8.60
2023-01-09T14:33:40.195Z,9.60
2023-01-09T14:36:19.700Z,9.37
2023-01-09T14:38:50.623Z,9.90
2023-01-09T14:41:44.567Z,8.30
2023-01-09T14:44:28.932Z,8.93
2023-01-09T14:47:01.710Z,9.10
2023-01-09T14:49:37.545Z,9.60
2023-01-09T14:52:15.693Z,8.63
2023-01-09T14:54:45.942Z,9.30
2023-01-09T14:57:31.572Z,8.70
2023-01-09T15:00:04.379Z,8.63
2023-01-09T15:02:36.816Z,9.83
2023-01-09T15:05:09.670Z,9.13
2023-01-09T15:07:44.803Z,7.37
2023-01-09T15:10:19.027Z,7.27
2023-01-09T15:12:49.455Z,7.70
2023-01-09T15:15:22.196Z,7.73
2023-01-09T15:17:56.601Z,8.37
2023-01-09T15:20:28.529Z,7.80
2023-01-09T15:22:58.659Z,8.50
2023-01-09T15:25:44.606Z,8.37
2023-01-09T15:28:29.270Z,8.57
2023-01-09T15:31:04.713Z,8.37
2023-01-09T15:33:34.528Z,7.23
2023-01-09T15:36:09.645Z,8.63
2023-01-09T15:38:40.335Z,9.03
2023-01-09T15:41:13.269Z,8.30
2023-01-09T15:43:44.415Z,9.70
2023-01-09T15:46:18.025Z,9.43
2023-01-09T15:48:46.897Z,9.27
2023-01-09T15:51:18.718Z,8.83
2023-01-09T15:53:50.444Z,10.73
2023-01-09T15:56:24.267Z,9.93
2023-01-09T15:58:57.424Z,9.40
2023-01-09T16:01:36.981Z,9.20
2023-01-09T16:04:09.946Z,9.47
2023-01-09T16:06:46.348Z,9.90
2023-01-09T16:09:18.599Z,11.83
2023-01-09T16:11:53.669Z,10.93
2023-01-09T16:14:31.804Z,10.07
2023-01-09T16:17:06.045Z,11.93
2023-01-09T16:19:48.207Z,9.87
2023-01-09T16:22:27.408Z,10.10
2023-01-09T16:24:58.143Z,10.97
2023-01-09T16:27:37.104Z,9.63
2023-01-09T16:30:08.248Z,10.77
2023-01-09T16:32:51.646Z,13.40
2023-01-09T16:35:22.931Z,11.23
2023-01-09T16:37:52.137Z,10.57
2023-01-09T16:40:32.368Z,10.40
2023-01-09T16:43:01.939Z,9.17
2023-01-09T16:45:34.592Z,9.87
2023-01-09T16:48:12.629Z,11.57
2023-01-09T16:50:42.849Z,11.50
2023-01-09T16:53:16.928Z,11.50
2023-01-09T16:55:46.536Z,12.37
2023-01-09T16:58:19.805Z,13.27
2023-01-09T17:00:49.606Z,13.20
2023-01-09T17:03:20.917Z,12.50
2023-01-09T17:05:53.283Z,12.80
2023-01-09T17:08:25.467Z,9.63
2023-01-09T17:10:56.630Z,10.20
2023-01-09T17:13:27.064Z,10.50
2023-01-09T17:15:57.501Z,10.30
2023-01-09T17:18:31.220Z,10.30
2023-01-09T17:21:00.511Z,10.63
2023-01-09T17:23:30.948Z,10.27
2023-01-09T17:26:18.728Z,10.93
2023-01-09T17:28:51.885Z,9.20
2023-01-09T17:31:20.968Z,9.40
2023-01-09T17:33:52.000Z,9.20
2023-01-09T17:36:27.992Z,9.57
2023-01-09T17:38:57.397Z,9.67
2023-01-09T17:41:28.789Z,9.10
2023-01-09T17:43:58.309Z,8.23
2023-01-09T17:46:31.237Z,9.10
2023-01-09T17:49:02.134Z,8.83
2023-01-09T17:51:32.047Z,9.80
2023-01-09T17:54:01.854Z,8.63
2023-01-09T17:56:37.722Z,9.63
2023-01-09T17:59:06.883Z,9.00
2023-01-09T18:01:36.474Z,10.20
2023-01-09T18:04:08.399Z,9.83
2023-01-09T18:06:38.095Z,9.60
2023-01-09T18:09:11.701Z,9.53
2023-01-09T18:11:42.908Z,9.80
2023-01-09T18:14:13.655Z,9.87
2023-01-09T18:16:45.631Z,8.60
2023-01-09T18:19:17.010Z,17.20
2023-01-09T18:21:47.437Z,8.23
2023-01-09T18:24:17.195Z,8.33
2023-01-09T18:26:47.028Z,8.30
2023-01-09T18:29:17.337Z,8.10
2023-01-09T18:31:47.747Z,8.90
2023-01-09T18:34:19.892Z,8.87
2023-01-09T18:36:49.432Z,8.57
2023-01-09T18:39:21.119Z,8.70
2023-01-09T18:41:51.979Z,10.50
2023-01-09T18:44:22.743Z,11.47
2023-01-09T18:46:51.795Z,11.87
2023-01-09T18:49:24.100Z,11.80
2023-01-09T18:51:53.875Z,9.77
2023-01-09T18:54:25.019Z,11.07
2023-01-09T18:56:56.250Z,9.90
2023-01-09T18:59:27.855Z,21.87
2023-01-09T19:02:00.267Z,20.07
2023-01-09T19:04:36.153Z,19.63
2023-01-09T19:07:08.253Z,26.70
2023-01-09T19:09:38.130Z,17.50
2023-01-09T19:12:09.618Z,37.47
2023-01-09T19:14:40.016Z,36.00
2023-01-09T19:17:10.187Z,19.63
2023-01-09T19:19:43.257Z,17.03
2023-01-09T19:22:15.566Z,16.57
2023-01-09T19:24:45.620Z,14.77
2023-01-09T19:27:18.438Z,13.90
2023-01-09T19:29:52.082Z,15.70
2023-01-09T19:32:23.524Z,13.00
2023-01-09T19:34:54.892Z,12.30
2023-01-09T19:37:26.435Z,15.67
2023-01-09T19:39:57.514Z,12.70
2023-01-09T19:42:28.565Z,14.60
2023-01-09T19:44:58.864Z,13.87
2023-01-09T19:47:28.984Z,15.23
2023-01-09T19:50:04.971Z,14.67
2023-01-09T19:52:37.989Z,13.30
2023-01-09T19:55:12.169Z,14.97
2023-01-09T19:57:42.375Z,12.40
2023-01-09T20:00:15.979Z,13.77
2023-01-09T20:02:47.360Z,13.40
2023-01-09T20:05:22.193Z,16.60
2023-01-09T20:07:57.010Z,15.63
2023-01-09T20:10:26.630Z,15.20
2023-01-09T20:12:56.950Z,11.60
2023-01-09T20:15:28.208Z,12.83
2023-01-09T20:17:57.713Z,14.23
2023-01-09T20:20:30.376Z,13.97
2023-01-09T20:23:02.035Z,13.23
2023-01-09T20:25:32.514Z,13.03
2023-01-09T20:28:04.139Z,14.53
2023-01-09T20:30:34.984Z,14.50
2023-01-09T20:33:04.455Z,15.10
2023-01-09T20:35:35.334Z,15.10
2023-01-09T20:38:05.585Z,16.60
2023-01-09T20:40:37.787Z,17.40
2023-01-09T20:43:09.752Z,17.77
2023-01-09T20:45:39.636Z,18.77
2023-01-09T20:48:12.590Z,17.80
2023-01-09T20:50:43.693Z,18.10
2023-01-09T20:53:13.087Z,19.00
2023-01-09T20:55:42.895Z,19.47
2023-01-09T20:58:12.861Z,19.33
2023-01-09T21:00:43.430Z,18.00
2023-01-09T21:03:16.921Z,18.17
2023-01-09T21:05:48.282Z,18.30
2023-01-09T21:08:20.639Z,16.43
2023-01-09T21:10:50.217Z,17.10
2023-01-09T21:13:20.115Z,20.40
2023-01-09T21:15:49.463Z,23.53
2023-01-09T21:18:18.437Z,23.63
2023-01-09T21:20:50.243Z,19.10
2023-01-09T21:23:19.565Z,22.17
2023-01-09T21:25:50.039Z,20.57
2023-01-09T21:28:20.439Z,21.40
2023-01-09T21:30:50.496Z,21.93
2023-01-09T21:33:22.755Z,21.00
2023-01-09T21:35:58.394Z,20.30
2023-01-09T21:38:28.835Z,19.17
2023-01-09T21:40:57.872Z,16.90
2023-01-09T21:43:45.702Z,17.33
2023-01-09T21:46:33.039Z,16.60
2023-01-09T21:49:04.523Z,17.20
2023-01-09T21:51:39.009Z,17.27
2023-01-09T21:54:07.812Z,16.83
2023-01-09T21:56:36.711Z,16.97
2023-01-09T21:59:05.764Z,16.83
2023-01-09T22:01:34.604Z,18.00
2023-01-09T22:04:03.599Z,17.73
2023-01-09T22:06:34.234Z,17.93
2023-01-09T22:09:03.010Z,17.23
2023-01-09T22:11:31.792Z,19.70
2023-01-09T22:14:01.314Z,17.50
2023-01-09T22:16:30.278Z,18.20
2023-01-09T22:18:59.176Z,17.80
2023-01-09T22:21:28.045Z,18.27
2023-01-09T22:24:01.733Z,23.67
2023-01-09T22:26:31.253Z,19.67
2023-01-09T22:29:00.118Z,18.73
2023-01-09T22:31:29.975Z,18.93
2023-01-09T22:33:59.886Z,17.80
2023-01-09T22:36:30.829Z,18.33
2023-01-09T22:39:02.384Z,16.90
2023-01-09T22:41:31.730Z,17.50
2023-01-09T22:44:00.691Z,18.63
2023-01-09T22:46:30.406Z,18.73
2023-01-09T22:48:59.301Z,17.40
2023-01-09T22:51:28.352Z,17.57
2023-01-09T22:53:57.181Z,18.00
2023-01-09T22:56:27.686Z,18.00
2023-01-09T22:58:58.635Z,17.90
2023-01-09T23:01:27.529Z,17.63
2023-01-09T23:03:56.481Z,18.10
2023-01-09T23:06:26.046Z,17.60
2023-01-09T23:08:55.009Z,17.57
2023-01-09T23:11:44.006Z,15.67
2023-01-09T23:14:13.391Z,17.00
2023-01-09T23:16:42.866Z,16.07
2023-01-09T23:19:15.884Z,23.03
2023-01-09T23:21:45.864Z,19.03
2023-01-09T23:24:16.452Z,27.17
2023-01-09T23:26:47.933Z,17.67
2023-01-09T23:29:16.792Z,18.57
2023-01-09T23:31:46.033Z,17.40
2023-01-09T23:34:17.207Z,18.70
2023-01-09T23:36:47.804Z,17.47
2023-01-09T23:39:16.773Z,14.20
2023-01-09T23:42:04.509Z,16.20
2023-01-09T23:44:33.369Z,18.50
2023-01-09T23:47:02.174Z,17.90
2023-01-09T23:49:31.065Z,18.50
2023-01-09T23:52:01.790Z,18.00
2023-01-09T23:54:30.658Z,17.43
2023-01-09T23:57:00.854Z,16.27
2023-01-09T23:59:29.721Z,17.57
